Time;durP1;ratioP1;P1;durP2;ratioP2;P2;SDS_P1;SDS_P2;PMS_P1;PMS_P2;Temp;Humidity;BMP_temperature;BMP_pressure;BME280_temperature;BME280_humidity;BME280_pressure;Samples;Min_cycle;Max_cycle;Signal;HPM_P1;HPM_P2
2021/09/21 00:01:48;;;;;;;7.60;4.95;;;8.80;94.30;;;;;;5006904;28;20038;-52
2021/09/21 00:04:14;;;;;;;7.82;5.50;;;8.80;94.20;;;;;;4994321;28;20054;-52
2021/09/21 00:06:40;;;;;;;7.50;5.40;;;8.80;94.30;;;;;;5010712;28;20030;-52
2021/09/21 00:09:05;;;;;;;8.30;5.32;;;8.90;94.50;;;;;;5016388;28;20414;-53
2021/09/21 00:11:31;;;;;;;6.60;4.80;;;8.80;94.40;;;;;;5012682;28;20038;-53
2021/09/21 00:13:57;;;;;;;7.53;5.15;;;8.90;94.50;;;;;;5010230;28;20425;-52
2021/09/21 00:16:23;;;;;;;8.68;4.88;;;8.90;94.60;;;;;;5012458;28;20125;-52
2021/09/21 00:18:49;;;;;;;8.82;4.97;;;8.90;94.60;;;;;;5008553;28;20121;-52
2021/09/21 00:21:15;;;;;;;8.18;4.70;;;8.90;94.70;;;;;;4999521;28;20038;-52
2021/09/21 00:23:40;;;;;;;10.80;5.15;;;9.00;94.80;;;;;;5012629;28;20069;-53
2021/09/21 00:26:06;;;;;;;9.10;5.13;;;9.00;94.70;;;;;;5013157;28;20046;-53
2021/09/21 00:28:31;;;;;;;7.22;5.18;;;9.10;94.70;;;;;;5012096;28;20512;-53
2021/09/21 00:31:03;;;;;;;8.45;5.63;;;9.10;94.70;;;;;;5012368;28;20052;-53
2021/09/21 00:33:35;;;;;;;9.47;5.73;;;9.10;94.70;;;;;;5012767;28;20042;-53
2021/09/21 00:36:01;;;;;;;7.00;5.03;;;9.10;94.80;;;;;;5007001;28;20305;-52
2021/09/21 00:38:26;;;;;;;10.55;5.82;;;9.10;94.80;;;;;;5015562;28;20037;-53
2021/09/21 00:40:52;;;;;;;8.60;6.03;;;9.10;95.00;;;;;;5016947;28;20038;-53
2021/09/21 00:43:22;;;;;;;10.73;6.05;;;9.20;94.80;;;;;;5012041;28;20125;-53
2021/09/21 00:45:52;;;;;;;9.27;5.72;;;9.20;95.00;;;;;;5011264;28;20037;-52
2021/09/21 00:48:18;;;;;;;9.93;5.82;;;9.20;94.90;;;;;;4998826;28;20173;-53
2021/09/21 00:50:43;;;;;;;10.88;6.35;;;9.30;95.00;;;;;;5011352;28;20469;-53
2021/09/21 00:53:09;;;;;;;9.30;6.15;;;9.30;95.10;;;;;;5012174;28;20064;-53
2021/09/21 00:55:35;;;;;;;7.68;5.32;;;9.30;95.20;;;;;;5013237;28;20042;-52
2021/09/21 00:58:00;;;;;;;8.65;6.00;;;9.30;95.10;;;;;;5011858;28;20080;-52
2021/09/21 01:00:26;;;;;;;8.82;6.03;;;9.40;95.20;;;;;;5012055;28;20034;-51
2021/09/21 01:02:52;;;;;;;11.32;6.10;;;9.40;95.20;;;;;;5011920;28;20045;-52
2021/09/21 01:05:18;;;;;;;11.40;5.90;;;9.40;95.20;;;;;;4997225;28;20038;-50
2021/09/21 01:07:44;;;;;;;8.95;5.70;;;9.40;95.10;;;;;;5012158;28;20042;-49
2021/09/21 01:10:20;;;;;;;7.90;6.07;;;9.40;95.30;;;;;;5008540;28;20035;-53
2021/09/21 01:12:46;;;;;;;7.55;5.50;;;9.40;95.50;;;;;;5003402;28;20033;-50
2021/09/21 01:15:13;;;;;;;7.68;5.20;;;9.40;95.60;;;;;;5009485;28;20112;-51
2021/09/21 01:17:39;;;;;;;6.75;5.10;;;9.40;95.40;;;;;;5011682;28;20034;-50
2021/09/21 01:20:07;;;;;;;8.45;5.40;;;9.40;95.40;;;;;;5024038;28;20397;-50
2021/09/21 01:22:33;;;;;;;8.57;6.05;;;9.40;95.60;;;;;;5011408;28;20041;-50
2021/09/21 01:24:58;;;;;;;7.60;5.55;;;9.50;95.80;;;;;;5007531;28;20038;-52
2021/09/21 01:27:24;;;;;;;7.38;5.30;;;9.40;95.80;;;;;;5016180;28;20450;-50
2021/09/21 01:29:50;;;;;;;8.38;5.30;;;9.50;95.90;;;;;;5020444;28;20053;-53
2021/09/21 01:32:19;;;;;;;9.23;5.47;;;9.50;95.80;;;;;;5010871;28;20038;-53
2021/09/21 01:34:45;;;;;;;7.50;5.50;;;9.50;95.90;;;;;;5016336;28;20540;-53
2021/09/21 01:37:13;;;;;;;9.80;5.57;;;9.50;96.00;;;;;;5010981;28;20117;-53
2021/09/21 01:39:39;;;;;;;7.75;5.63;;;9.50;96.10;;;;;;5011702;28;20030;-53
2021/09/21 01:42:05;;;;;;;8.48;5.85;;;9.50;96.20;;;;;;5011210;28;20061;-53
2021/09/21 01:44:30;;;;;;;8.15;5.75;;;9.50;96.00;;;;;;5021286;28;20041;-52
2021/09/21 01:46:56;;;;;;;8.73;6.15;;;9.50;96.00;;;;;;5011093;28;20030;-50
2021/09/21 01:49:22;;;;;;;8.90;6.43;;;9.50;95.90;;;;;;5010323;28;20117;-50
2021/09/21 01:52:06;;;;;;;8.52;6.53;;;9.50;95.80;;;;;;5012350;28;20501;-51
2021/09/21 01:59:48;;;;;;;8.98;6.10;;;9.60;95.60;;;;;;5010275;28;20748;-50
2021/09/21 02:02:13;;;;;;;8.88;5.90;;;9.60;95.80;;;;;;5010900;28;20072;-49
2021/09/21 02:04:39;;;;;;;8.65;5.72;;;9.70;96.00;;;;;;5009938;28;20034;-50
2021/09/21 02:07:04;;;;;;;7.72;6.05;;;9.70;96.10;;;;;;5004666;28;20042;-51
2021/09/21 02:09:30;;;;;;;8.35;5.97;;;9.70;96.10;;;;;;5003706;28;20409;-51
2021/09/21 02:11:55;;;;;;;10.55;6.07;;;9.70;95.90;;;;;;4995197;28;20045;-49
2021/09/21 02:14:22;;;;;;;8.90;5.78;;;9.70;96.00;;;;;;5009386;28;20042;-50
2021/09/21 02:16:51;;;;;;;8.32;5.63;;;9.70;96.10;;;;;;5010600;28;20111;-50
2021/09/21 02:19:16;;;;;;;8.80;6.00;;;9.80;96.20;;;;;;5007546;28;20057;-52
2021/09/21 02:21:42;;;;;;;8.52;6.15;;;9.70;96.10;;;;;;5006977;28;20034;-51
2021/09/21 02:24:08;;;;;;;10.52;6.25;;;9.80;96.20;;;;;;5010151;28;20042;-50
2021/09/21 02:26:33;;;;;;;9.63;6.60;;;9.80;96.10;;;;;;5010773;28;20581;-52
2021/09/21 02:28:59;;;;;;;12.68;6.47;;;9.80;96.00;;;;;;5010284;28;20042;-52
2021/09/21 02:31:25;;;;;;;9.05;5.78;;;9.80;96.00;;;;;;5009069;28;20034;-49
2021/09/21 02:33:50;;;;;;;9.25;6.70;;;9.80;96.00;;;;;;5000586;28;20121;-51
2021/09/21 02:36:16;;;;;;;10.63;7.07;;;9.80;96.00;;;;;;5008016;28;20038;-52
2021/09/21 02:38:41;;;;;;;10.35;7.25;;;9.90;95.90;;;;;;4997514;28;20038;-50
2021/09/21 02:41:08;;;;;;;12.10;6.40;;;9.90;95.90;;;;;;5006073;28;20512;-50
2021/09/21 02:43:34;;;;;;;9.85;6.65;;;9.90;96.00;;;;;;4992802;28;20034;-50
2021/09/21 02:46:01;;;;;;;12.10;7.00;;;9.90;96.00;;;;;;5003646;28;20030;-52
2021/09/21 02:48:32;;;;;;;10.15;7.00;;;9.90;96.10;;;;;;5010677;28;20073;-50
2021/09/21 02:50:59;;;;;;;9.02;7.00;;;9.90;96.20;;;;;;5008920;28;20038;-51
2021/09/21 02:53:24;;;;;;;11.20;7.05;;;10.00;96.30;;;;;;5006283;28;20045;-52
2021/09/21 02:55:50;;;;;;;10.25;6.60;;;9.90;96.30;;;;;;5009538;28;20048;-50
2021/09/21 02:58:15;;;;;;;9.68;6.13;;;9.90;96.30;;;;;;5010714;28;20038;-51
2021/09/21 03:00:42;;;;;;;11.30;6.00;;;10.00;96.40;;;;;;4996773;28;20041;-50
2021/09/21 03:03:08;;;;;;;9.65;6.50;;;10.00;96.40;;;;;;5010496;28;20117;-50
2021/09/21 03:05:42;;;;;;;11.70;7.15;;;10.00;96.40;;;;;;5008569;28;20093;-52
2021/09/21 03:08:19;;;;;;;9.00;6.68;;;10.00;96.30;;;;;;5020167;28;20489;-52
2021/09/21 03:18:26;;;;;;;11.15;6.90;;;10.00;96.80;;;;;;5013789;28;20069;-51
2021/09/21 03:20:52;;;;;;;9.85;6.88;;;10.00;96.70;;;;;;5017046;28;20037;-50
2021/09/21 03:23:18;;;;;;;10.18;7.13;;;10.00;96.50;;;;;;5013665;28;20038;-50
2021/09/21 03:25:44;;;;;;;9.23;7.43;;;9.90;96.60;;;;;;5015597;28;20042;-51
2021/09/21 03:28:09;;;;;;;10.85;7.53;;;10.00;96.70;;;;;;5001818;28;20121;-50
2021/09/21 03:30:35;;;;;;;11.77;8.07;;;10.00;96.60;;;;;;5016635;28;20064;-53
2021/09/21 03:33:00;;;;;;;11.00;8.02;;;10.00;96.70;;;;;;5013583;28;20037;-50
2021/09/21 03:35:26;;;;;;;11.70;7.68;;;10.00;96.60;;;;;;5012528;28;20034;-50
2021/09/21 03:37:52;;;;;;;10.60;7.82;;;10.10;96.70;;;;;;5014250;28;20104;-50
2021/09/21 03:40:17;;;;;;;11.15;7.90;;;10.10;96.70;;;;;;5023230;28;20049;-51
2021/09/21 03:42:43;;;;;;;10.88;7.53;;;10.10;96.70;;;;;;5013618;28;20069;-51
2021/09/21 03:45:10;;;;;;;12.60;8.13;;;10.10;96.90;;;;;;5012463;28;20037;-50
2021/09/21 03:47:36;;;;;;;14.32;8.20;;;10.10;96.90;;;;;;5013324;28;20590;-51
2021/09/21 03:50:04;;;;;;;12.02;8.40;;;10.10;96.90;;;;;;5012789;28;20046;-50
2021/09/21 03:52:29;;;;;;;12.48;8.02;;;10.10;96.90;;;;;;5013575;28;20034;-50
2021/09/21 03:54:55;;;;;;;13.02;8.45;;;10.10;96.80;;;;;;5015056;28;20470;-50
2021/09/21 03:57:20;;;;;;;11.00;8.52;;;10.10;96.80;;;;;;5021034;28;20049;-50
2021/09/21 03:59:46;;;;;;;11.48;7.28;;;10.10;96.70;;;;;;5016767;28;20120;-51
2021/09/21 04:02:12;;;;;;;8.50;6.65;;;10.10;96.90;;;;;;5012702;28;20045;-50
2021/09/21 04:04:37;;;;;;;10.20;7.10;;;10.10;97.10;;;;;;5012355;28;20046;-53
2021/09/21 04:07:03;;;;;;;10.15;7.00;;;10.20;97.10;;;;;;5008416;28;20180;-53
2021/09/21 04:09:28;;;;;;;9.73;7.22;;;10.10;97.10;;;;;;5009774;28;20127;-52
2021/09/21 04:11:54;;;;;;;10.32;6.60;;;10.10;97.20;;;;;;5013805;28;20042;-51
2021/09/21 04:14:20;;;;;;;8.63;6.40;;;10.10;97.10;;;;;;5011828;28;20037;-51
2021/09/21 04:16:45;;;;;;;9.57;6.47;;;10.10;97.10;;;;;;5013163;28;20052;-51
2021/09/21 04:19:11;;;;;;;9.52;6.57;;;10.20;97.20;;;;;;5008285;28;20380;-50
2021/09/21 04:21:36;;;;;;;10.73;7.10;;;10.10;97.20;;;;;;5004045;28;20096;-51
2021/09/21 04:24:02;;;;;;;11.18;7.93;;;10.20;97.40;;;;;;5004336;28;20038;-52
2021/09/21 04:26:28;;;;;;;12.55;8.00;;;10.20;97.40;;;;;;5012362;28;20038;-52
2021/09/21 04:28:53;;;;;;;12.95;8.38;;;10.20;97.30;;;;;;5012808;28;20049;-51
2021/09/21 04:31:25;;;;;;;13.55;9.50;;;10.20;97.30;;;;;;5011974;28;20044;-52
2021/09/21 04:33:55;;;;;;;11.43;8.68;;;10.20;97.20;;;;;;5012301;28;20037;-53
2021/09/21 04:36:21;;;;;;;13.52;8.77;;;10.20;97.00;;;;;;4995359;28;20045;-55
2021/09/21 04:38:47;;;;;;;11.05;8.00;;;10.20;96.90;;;;;;5009183;28;20494;-53
2021/09/21 04:41:13;;;;;;;14.60;9.00;;;10.20;96.90;;;;;;5011949;28;20037;-54
2021/09/21 04:43:39;;;;;;;12.93;8.77;;;10.20;97.00;;;;;;5019440;28;20558;-51
2021/09/21 04:46:07;;;;;;;13.32;8.52;;;10.20;97.00;;;;;;5011295;28;20125;-51
2021/09/21 04:48:33;;;;;;;10.15;7.60;;;10.20;97.00;;;;;;5012146;28;20095;-54
2021/09/21 04:50:58;;;;;;;12.48;8.40;;;10.20;97.10;;;;;;5037154;22;20038;-50
2021/09/21 04:53:24;;;;;;;11.20;7.78;;;10.20;97.20;;;;;;4994056;28;20068;-51
2021/09/21 04:55:49;;;;;;;12.73;8.38;;;10.20;97.30;;;;;;5010605;28;20038;-50
2021/09/21 04:58:15;;;;;;;10.07;8.15;;;10.20;97.40;;;;;;5020700;28;20760;-50
2021/09/21 05:00:40;;;;;;;12.82;8.73;;;10.20;97.30;;;;;;5020036;28;20351;-51
2021/09/21 05:03:06;;;;;;;14.13;8.88;;;10.20;97.60;;;;;;5022175;28;20061;-51
2021/09/21 05:05:32;;;;;;;12.20;8.65;;;10.20;97.40;;;;;;5012676;28;20047;-49
2021/09/21 05:07:58;;;;;;;13.85;8.55;;;10.20;97.50;;;;;;5010946;28;20034;-52
2021/09/21 05:10:24;;;;;;;11.35;8.20;;;10.30;97.40;;;;;;5012586;28;20042;-55
2021/09/21 05:12:49;;;;;;;12.68;8.60;;;10.20;97.50;;;;;;5028309;28;20041;-49
2021/09/21 05:15:15;;;;;;;13.25;9.00;;;10.30;97.40;;;;;;5009732;28;20410;-51
2021/09/21 05:17:41;;;;;;;11.57;8.75;;;10.30;97.40;;;;;;5025340;28;20054;-49
2021/09/21 05:20:07;;;;;;;11.98;9.43;;;10.30;97.40;;;;;;5012230;28;20037;-51
2021/09/21 05:22:33;;;;;;;12.63;9.57;;;10.30;97.30;;;;;;5020427;28;20104;-53
2021/09/21 05:24:59;;;;;;;13.18;9.27;;;10.30;97.30;;;;;;5025819;28;20488;-51
2021/09/21 05:27:25;;;;;;;15.65;10.18;;;10.30;97.20;;;;;;5013192;28;20709;-51
2021/09/21 05:29:51;;;;;;;13.60;9.90;;;10.30;97.30;;;;;;5009110;28;20038;-54
2021/09/21 05:32:16;;;;;;;13.10;9.68;;;10.30;97.20;;;;;;5008755;28;20045;-53
2021/09/21 05:34:43;;;;;;;15.70;9.95;;;10.40;97.20;;;;;;4993275;28;20034;-52
2021/09/21 05:37:08;;;;;;;13.98;10.20;;;10.40;97.10;;;;;;4985442;28;20046;-49
2021/09/21 05:39:37;;;;;;;15.82;9.60;;;10.40;97.10;;;;;;5011816;28;20037;-49
2021/09/21 05:42:07;;;;;;;13.05;9.65;;;10.40;96.90;;;;;;5040687;28;20045;-53
2021/09/21 05:44:33;;;;;;;14.88;10.30;;;10.40;96.80;;;;;;5028766;28;20030;-52
2021/09/21 05:46:59;;;;;;;13.07;10.05;;;10.50;96.70;;;;;;5012424;28;20038;-50
2021/09/21 05:49:25;;;;;;;14.80;9.10;;;10.50;96.60;;;;;;5013134;28;20037;-50
2021/09/21 05:51:50;;;;;;;16.17;10.23;;;10.50;96.50;;;;;;5011382;28;20527;-49
2021/09/21 05:54:16;;;;;;;13.30;9.90;;;10.50;96.50;;;;;;5011744;28;20121;-53
2021/09/21 05:56:43;;;;;;;11.90;9.23;;;10.50;96.50;;;;;;5014673;28;20049;-52
2021/09/21 05:59:09;;;;;;;13.95;10.10;;;10.60;96.50;;;;;;5025727;28;20296;-50
2021/09/21 06:01:35;;;;;;;20.08;10.20;;;10.60;96.50;;;;;;5011980;28;20128;-54
2021/09/21 06:04:02;;;;;;;16.27;9.38;;;10.60;96.60;;;;;;5013012;28;20034;-55
2021/09/21 06:06:28;;;;;;;14.70;10.15;;;10.60;96.60;;;;;;5027746;28;20490;-52
2021/09/21 06:08:53;;;;;;;16.77;10.07;;;10.70;96.70;;;;;;4993757;28;20092;-52
2021/09/21 06:11:20;;;;;;;13.00;9.70;;;10.70;96.50;;;;;;5019133;28;20036;-49
2021/09/21 06:13:47;;;;;;;12.15;9.55;;;10.70;96.40;;;;;;5015003;28;20108;-52
2021/09/21 06:16:18;;;;;;;14.77;9.50;;;10.70;96.40;;;;;;5015667;28;20398;-49
2021/09/21 06:18:44;;;;;;;13.65;9.85;;;10.70;96.40;;;;;;5011966;28;20437;-50
2021/09/21 06:21:10;;;;;;;14.50;9.30;;;10.70;96.30;;;;;;5011910;28;20437;-50
2021/09/21 06:23:35;;;;;;;13.57;9.57;;;10.70;96.30;;;;;;5009508;28;20042;-49
2021/09/21 06:26:01;;;;;;;14.77;9.68;;;10.70;96.20;;;;;;5015560;28;20375;-49
2021/09/21 06:28:27;;;;;;;15.07;10.40;;;10.70;96.10;;;;;;5019166;28;20053;-49
2021/09/21 06:30:52;;;;;;;13.48;9.80;;;10.80;96.00;;;;;;5011121;28;20034;-50
2021/09/21 06:33:21;;;;;;;13.18;9.60;;;10.80;95.90;;;;;;5012233;28;20518;-52
2021/09/21 06:35:47;;;;;;;13.15;9.57;;;10.80;95.80;;;;;;5010002;28;20053;-49
2021/09/21 06:38:13;;;;;;;16.33;9.57;;;10.80;95.80;;;;;;5011021;28;20129;-49
2021/09/21 06:40:39;;;;;;;13.07;9.40;;;10.80;95.90;;;;;;5021354;28;20049;-50
2021/09/21 06:43:04;;;;;;;13.95;10.15;;;10.80;95.60;;;;;;5015366;28;20077;-51
2021/09/21 06:45:30;;;;;;;13.35;10.20;;;10.80;95.50;;;;;;4999296;28;20057;-50
2021/09/21 06:47:56;;;;;;;13.88;9.73;;;10.90;95.50;;;;;;5014851;28;20123;-53
2021/09/21 06:50:22;;;;;;;18.00;10.43;;;10.70;95.70;;;;;;5016889;28;20100;-51
2021/09/21 06:52:47;;;;;;;13.35;9.90;;;10.90;95.50;;;;;;5017687;28;20065;-53
2021/09/21 06:55:14;;;;;;;18.67;10.45;;;10.90;95.50;;;;;;5024119;28;20034;-52
2021/09/21 06:57:41;;;;;;;15.35;10.45;;;11.00;95.50;;;;;;4980551;28;20126;-56
2021/09/21 07:00:09;;;;;;;15.35;10.77;;;11.00;95.60;;;;;;4996414;28;20224;-53
2021/09/21 07:02:38;;;;;;;14.75;10.52;;;11.00;95.60;;;;;;4987514;28;20129;-51
2021/09/21 07:05:04;;;;;;;16.10;10.18;;;11.10;95.50;;;;;;4998511;28;20497;-49
2021/09/21 07:07:29;;;;;;;15.15;10.85;;;11.10;95.50;;;;;;5013892;28;20030;-51
2021/09/21 07:09:55;;;;;;;15.23;10.65;;;11.10;95.40;;;;;;5014794;28;20133;-52
2021/09/21 07:12:20;;;;;;;14.88;10.98;;;11.10;95.40;;;;;;5015185;28;20053;-50
2021/09/21 07:14:46;;;;;;;18.08;10.93;;;11.20;95.50;;;;;;5015954;28;20110;-51
2021/09/21 07:17:12;;;;;;;13.95;10.40;;;11.20;95.40;;;;;;5018169;28;20087;-50
2021/09/21 07:19:37;;;;;;;15.32;10.60;;;11.30;95.30;;;;;;5015307;28;20057;-55
2021/09/21 07:22:03;;;;;;;15.25;11.10;;;11.30;95.40;;;;;;5013602;28;20052;-50
2021/09/21 07:24:29;;;;;;;16.70;11.13;;;11.40;95.20;;;;;;5015389;28;20128;-52
2021/09/21 07:26:55;;;;;;;18.02;11.05;;;11.40;95.30;;;;;;5014427;28;20041;-51
2021/09/21 07:29:20;;;;;;;16.85;10.85;;;11.50;95.40;;;;;;5014736;28;20577;-55
2021/09/21 07:31:46;;;;;;;14.10;10.73;;;11.50;95.20;;;;;;5029601;28;20121;-50
2021/09/21 07:34:11;;;;;;;16.73;11.85;;;11.60;95.20;;;;;;5016660;28;20038;-50
2021/09/21 07:36:40;;;;;;;17.05;11.40;;;11.60;95.20;;;;;;5014206;28;20093;-50
2021/09/21 07:39:05;;;;;;;15.60;11.30;;;11.60;95.10;;;;;;5013661;28;20104;-54
2021/09/21 07:41:31;;;;;;;16.27;11.30;;;11.70;95.10;;;;;;5014428;28;20057;-51
2021/09/21 07:43:57;;;;;;;18.00;11.10;;;11.70;95.10;;;;;;5011850;28;20034;-51
2021/09/21 07:46:23;;;;;;;16.17;11.27;;;11.80;95.00;;;;;;5012709;28;20397;-55
2021/09/21 07:48:48;;;;;;;15.27;11.35;;;11.80;95.00;;;;;;5006398;28;20133;-51
2021/09/21 07:51:14;;;;;;;17.92;11.20;;;11.80;95.00;;;;;;5013546;28;20363;-52
2021/09/21 07:53:40;;;;;;;15.85;10.85;;;11.90;94.90;;;;;;5012787;28;20490;-54
2021/09/21 07:56:05;;;;;;;15.90;11.07;;;12.00;94.80;;;;;;5012916;28;20501;-55
2021/09/21 07:58:34;;;;;;;16.15;10.55;;;12.00;94.70;;;;;;5014055;28;20034;-54
2021/09/21 08:01:00;;;;;;;12.95;10.18;;;12.10;94.60;;;;;;4995857;28;20113;-54
2021/09/21 08:03:26;;;;;;;14.57;10.43;;;12.20;94.50;;;;;;5011788;28;20069;-55
2021/09/21 08:05:51;;;;;;;15.20;10.65;;;12.20;94.50;;;;;;5011260;28;20080;-54
2021/09/21 08:08:17;;;;;;;15.07;10.23;;;12.30;94.40;;;;;;5015120;28;20128;-55
2021/09/21 08:10:44;;;;;;;13.15;9.73;;;12.40;94.20;;;;;;5014268;28;20738;-53
2021/09/21 08:13:10;;;;;;;15.27;10.77;;;12.50;94.20;;;;;;5009454;28;20399;-54
2021/09/21 08:15:36;;;;;;;12.43;9.23;;;12.60;94.00;;;;;;5009713;28;20040;-53
2021/09/21 08:18:02;;;;;;;13.82;9.23;;;12.70;93.60;;;;;;5013388;28;20430;-54
2021/09/21 08:20:28;;;;;;;13.30;9.77;;;12.80;93.30;;;;;;5011969;28;20037;-54
2021/09/21 08:22:55;;;;;;;14.45;9.88;;;12.90;93.30;;;;;;5012680;28;20095;-54
2021/09/21 08:25:21;;;;;;;13.88;8.88;;;13.00;93.10;;;;;;5009607;28;20041;-54
2021/09/21 08:27:49;;;;;;;15.65;9.18;;;13.00;93.10;;;;;;5003542;28;20050;-54
2021/09/21 08:30:17;;;;;;;14.52;8.32;;;13.10;92.90;;;;;;5013833;28;20042;-55
2021/09/21 08:32:43;;;;;;;10.73;7.57;;;13.20;92.60;;;;;;5006554;28;20045;-54
2021/09/21 08:35:09;;;;;;;10.65;7.35;;;13.30;92.30;;;;;;5006965;28;20504;-56
2021/09/21 08:37:34;;;;;;;15.35;8.20;;;13.40;91.80;;;;;;5011948;28;20033;-53
2021/09/21 08:40:00;;;;;;;12.90;7.15;;;13.50;91.60;;;;;;5016197;28;20037;-52
2021/09/21 08:42:26;;;;;;;12.88;7.90;;;13.50;91.30;;;;;;5017530;28;20125;-52
2021/09/21 08:44:52;;;;;;;11.55;7.57;;;13.60;91.20;;;;;;5005663;28;20042;-54
2021/09/21 08:47:19;;;;;;;12.23;7.10;;;13.70;90.80;;;;;;5011527;28;20425;-53
2021/09/21 08:49:45;;;;;;;14.50;7.38;;;13.70;91.00;;;;;;5023942;28;20127;-54
2021/09/21 08:52:11;;;;;;;11.05;6.60;;;13.80;90.80;;;;;;5013819;28;20096;-56
2021/09/21 08:54:36;;;;;;;12.13;7.22;;;13.90;90.60;;;;;;5011843;28;20030;-55
2021/09/21 08:57:03;;;;;;;11.75;7.20;;;13.90;90.40;;;;;;5012396;28;20037;-55
2021/09/21 08:59:37;;;;;;;10.98;6.88;;;13.90;89.40;;;;;;5027897;28;20509;-55
2021/09/21 09:02:08;;;;;;;11.88;7.55;;;14.00;89.40;;;;;;4999262;28;20045;-55
2021/09/21 09:04:35;;;;;;;11.40;6.68;;;14.10;90.00;;;;;;4998722;28;20540;-55
2021/09/21 09:07:02;;;;;;;10.65;7.35;;;14.20;90.00;;;;;;5011381;28;20074;-55
2021/09/21 09:09:31;;;;;;;12.70;6.88;;;14.20;90.00;;;;;;5010356;28;20457;-55
2021/09/21 09:12:04;;;;;;;10.52;6.85;;;14.30;89.50;;;;;;5011463;28;20034;-55
2021/09/21 09:14:32;;;;;;;10.70;7.45;;;14.30;88.90;;;;;;5011909;28;20460;-54
2021/09/21 09:17:05;;;;;;;14.00;7.60;;;14.40;89.00;;;;;;5025694;28;20095;-54
2021/09/21 09:19:40;;;;;;;11.57;7.15;;;14.40;89.10;;;;;;5012608;28;20045;-51
2021/09/21 09:22:11;;;;;;;11.93;8.32;;;14.50;89.20;;;;;;5016776;28;20052;-50
2021/09/21 09:24:48;;;;;;;9.45;6.80;;;14.60;88.90;;;;;;5011609;28;20068;-50
2021/09/21 09:27:14;;;;;;;11.00;7.18;;;14.70;88.20;;;;;;4994298;28;20029;-51
2021/09/21 09:30:00;;;;;;;13.20;7.55;;;14.80;88.20;;;;;;5011836;28;20126;-53
2021/09/21 09:32:26;;;;;;;10.00;7.07;;;14.90;87.60;;;;;;5011791;28;20029;-50
2021/09/21 09:34:57;;;;;;;10.57;7.30;;;14.90;87.80;;;;;;5026372;28;20045;-52
2021/09/21 09:37:23;;;;;;;9.77;6.65;;;15.00;87.40;;;;;;5010008;28;20049;-54
2021/09/21 09:39:59;;;;;;;10.15;7.35;;;15.10;86.60;;;;;;5012289;28;20064;-54
2021/09/21 09:42:24;;;;;;;11.38;7.18;;;15.20;85.30;;;;;;5011539;28;20096;-54
2021/09/21 09:44:50;;;;;;;9.32;6.53;;;15.20;85.90;;;;;;5023271;28;20442;-53
2021/09/21 09:47:16;;;;;;;9.55;7.40;;;15.30;86.20;;;;;;5005521;28;20080;-54
2021/09/21 09:49:45;;;;;;;12.15;7.13;;;15.30;85.70;;;;;;5011970;28;20046;-54
2021/09/21 09:52:17;;;;;;;11.48;6.90;;;15.40;86.10;;;;;;5012603;28;20522;-52
2021/09/21 09:54:44;;;;;;;11.98;7.18;;;15.50;85.50;;;;;;5024763;28;20041;-54
2021/09/21 09:57:11;;;;;;;9.07;6.70;;;15.50;85.30;;;;;;5010015;28;20533;-54
2021/09/21 09:59:38;;;;;;;11.00;6.70;;;15.60;84.80;;;;;;5011230;28;20076;-53
2021/09/21 10:02:04;;;;;;;9.57;6.38;;;15.70;84.40;;;;;;5008588;28;20096;-54
2021/09/21 10:04:30;;;;;;;10.95;6.00;;;15.80;84.60;;;;;;5022935;28;20118;-53
2021/09/21 10:06:58;;;;;;;11.95;6.10;;;16.00;84.00;;;;;;5010548;28;20053;-53
2021/09/21 10:09:24;;;;;;;10.85;6.00;;;16.00;82.20;;;;;;4998889;28;20072;-53
2021/09/21 10:11:55;;;;;;;8.95;5.90;;;16.00;81.80;;;;;;5021339;28;20044;-53
2021/09/21 10:14:21;;;;;;;12.55;6.03;;;16.10;81.70;;;;;;5009258;28;20557;-53
2021/09/21 10:16:53;;;;;;;7.95;5.47;;;16.20;81.10;;;;;;5006808;28;20048;-55
2021/09/21 10:19:22;;;;;;;10.48;5.18;;;16.20;80.90;;;;;;5021835;28;20050;-54
2021/09/21 10:21:50;;;;;;;8.32;4.88;;;16.30;79.90;;;;;;4992017;28;20585;-51
2021/09/21 10:24:16;;;;;;;7.97;5.30;;;17.20;79.90;;;;;;5014130;28;20050;-55
2021/09/21 10:26:43;;;;;;;8.35;5.50;;;16.20;79.90;;;;;;5013887;28;20045;-52
2021/09/21 10:29:10;;;;;;;7.75;5.40;;;16.30;80.30;;;;;;5014011;28;20053;-50
2021/09/21 10:31:38;;;;;;;8.27;4.70;;;16.30;80.70;;;;;;5015176;28;20568;-53
2021/09/21 10:34:15;;;;;;;10.20;5.97;;;16.30;80.00;;;;;;5006138;28;20089;-51
2021/09/21 10:37:00;;;;;;;7.40;5.13;;;16.30;80.00;;;;;;5007028;28;20402;-50
2021/09/21 10:39:25;;;;;;;6.18;4.43;;;16.30;78.50;;;;;;5014865;28;20087;-54
2021/09/21 10:42:00;;;;;;;6.75;4.70;;;16.30;78.80;;;;;;5017894;28;20133;-51
2021/09/21 10:44:27;;;;;;;6.90;3.97;;;16.40;77.10;;;;;;5014030;28;20041;-53
2021/09/21 10:46:54;;;;;;;7.68;4.53;;;16.40;77.50;;;;;;4996735;28;20089;-53
2021/09/21 10:49:38;;;;;;;8.75;4.68;;;16.40;77.40;;;;;;5012928;28;20049;-53
2021/09/21 10:52:09;;;;;;;7.20;5.43;;;16.50;77.90;;;;;;5007237;28;20038;-55
2021/09/21 10:54:39;;;;;;;7.45;4.40;;;16.50;77.50;;;;;;5011285;28;20401;-51
2021/09/21 10:57:15;;;;;;;10.52;4.68;;;16.60;77.80;;;;;;5005099;28;20042;-55
2021/09/21 10:59:55;;;;;;;7.85;4.35;;;16.60;74.90;;;;;;5010939;28;20038;-50
2021/09/21 11:02:30;;;;;;;6.18;3.83;;;16.60;75.70;;;;;;4997923;28;20053;-53
2021/09/21 11:04:59;;;;;;;8.35;4.15;;;16.60;76.40;;;;;;5012661;28;20401;-53
2021/09/21 11:07:25;;;;;;;6.65;4.22;;;16.70;75.60;;;;;;5014137;28;20034;-53
2021/09/21 11:09:53;;;;;;;7.78;4.75;;;16.70;75.00;;;;;;5014287;28;20502;-55
2021/09/21 11:12:22;;;;;;;6.35;4.57;;;16.80;73.60;;;;;;5014306;28;20037;-56
2021/09/21 11:14:48;;;;;;;6.30;3.70;;;16.80;73.90;;;;;;5011467;28;20062;-55
2021/09/21 11:17:14;;;;;;;6.75;3.80;;;16.90;73.70;;;;;;5015546;28;20034;-50
2021/09/21 11:19:41;;;;;;;7.53;4.13;;;17.00;73.60;;;;;;5015358;28;20034;-53
2021/09/21 11:22:15;;;;;;;6.40;4.03;;;17.00;72.70;;;;;;5017819;28;20069;-53
2021/09/21 11:24:41;;;;;;;6.57;4.38;;;17.00;72.90;;;;;;5022414;28;20192;-55
2021/09/21 11:27:09;;;;;;;6.10;4.38;;;17.00;73.40;;;;;;5013342;28;20482;-50
2021/09/21 11:29:41;;;;;;;7.13;4.45;;;17.00;73.90;;;;;;5015085;28;20099;-53
2021/09/21 11:32:20;;;;;;;6.78;4.63;;;17.10;74.20;;;;;;5017910;28;20052;-53
2021/09/21 11:35:08;;;;;;;6.13;4.03;;;17.10;74.70;;;;;;5027472;28;20490;-53
2021/09/21 11:37:34;;;;;;;8.05;4.30;;;17.20;73.60;;;;;;5004687;28;20061;-55
2021/09/21 11:40:00;;;;;;;6.88;4.15;;;17.20;74.50;;;;;;5016265;28;20106;-53
2021/09/21 11:42:29;;;;;;;9.65;4.80;;;17.30;74.90;;;;;;5012570;28;20088;-54
2021/09/21 11:45:05;;;;;;;9.13;4.45;;;17.30;75.30;;;;;;5012355;28;20057;-54
2021/09/21 11:47:40;;;;;;;7.13;4.35;;;17.30;74.80;;;;;;5014764;28;20033;-55
2021/09/21 11:50:14;;;;;;;10.32;4.90;;;17.30;74.50;;;;;;5004260;28;20218;-54
2021/09/21 11:52:45;;;;;;;6.82;4.40;;;17.40;74.30;;;;;;5009773;28;20512;-54
2021/09/21 11:55:14;;;;;;;6.55;4.03;;;17.40;74.20;;;;;;5008694;28;20034;-51
2021/09/21 11:57:41;;;;;;;7.22;4.78;;;17.40;74.30;;;;;;5010497;28;20034;-52
2021/09/21 12:00:28;;;;;;;6.53;5.00;;;17.40;74.10;;;;;;5013672;28;20046;-53
2021/09/21 12:03:04;;;;;;;7.93;5.10;;;17.40;73.50;;;;;;5031123;28;20050;-53
2021/09/21 12:05:32;;;;;;;7.03;4.80;;;17.40;73.80;;;;;;5015306;28;20944;-54
2021/09/21 12:08:08;;;;;;;8.50;4.53;;;17.30;74.80;;;;;;5013301;28;20026;-55
2021/09/21 12:10:37;;;;;;;7.30;4.60;;;17.30;75.40;;;;;;5012820;28;20034;-54
2021/09/21 12:13:16;;;;;;;9.95;5.10;;;17.30;75.80;;;;;;5013476;28;20038;-55
2021/09/21 12:15:44;;;;;;;10.98;4.85;;;17.40;76.20;;;;;;5012746;28;20092;-55
2021/09/21 12:18:12;;;;;;;7.03;4.70;;;17.50;76.60;;;;;;5014212;28;20051;-55
2021/09/21 12:20:39;;;;;;;7.55;4.75;;;17.50;76.30;;;;;;5007192;28;20043;-55
2021/09/21 12:23:07;;;;;;;6.95;4.35;;;17.50;76.90;;;;;;5012178;28;20497;-51
2021/09/21 12:25:35;;;;;;;8.43;5.00;;;17.60;78.50;;;;;;5017740;28;20030;-53
2021/09/21 12:28:06;;;;;;;8.93;5.30;;;17.60;77.60;;;;;;5012921;28;20061;-54
2021/09/21 12:30:36;;;;;;;7.43;5.22;;;17.70;77.00;;;;;;5005435;28;20038;-53
2021/09/21 12:33:11;;;;;;;10.13;5.85;;;17.70;77.80;;;;;;5011312;28;20137;-52
2021/09/21 12:35:48;;;;;;;7.07;5.18;;;17.80;76.70;;;;;;5000454;28;20040;-54
2021/09/21 12:38:33;;;;;;;11.25;5.95;;;17.70;76.70;;;;;;5013534;28;20049;-52
2021/09/21 12:41:06;;;;;;;10.30;6.28;;;17.70;76.90;;;;;;5014081;28;20037;-54
2021/09/21 12:43:33;;;;;;;;;;;17.70;76.00;;;;;;5014006;28;20046;-53
2021/09/21 12:46:04;;;;;;;9.63;6.57;;;17.60;75.80;;;;;;5012963;28;19917;-53
2021/09/21 12:48:36;;;;;;;8.82;6.40;;;17.60;76.20;;;;;;5014066;28;20050;-51
2021/09/21 12:51:05;;;;;;;8.15;5.80;;;17.60;76.80;;;;;;5013951;28;20049;-55
2021/09/21 12:53:31;;;;;;;9.05;6.20;;;17.60;77.20;;;;;;5013177;28;20038;-54
2021/09/21 12:56:09;;;;;;;9.70;5.53;;;17.70;77.20;;;;;;5010847;28;20056;-53
2021/09/21 12:58:38;;;;;;;9.18;6.28;;;17.70;77.30;;;;;;5003393;28;20038;-54